Terminal Aerodrome Forecast
Issued by NWS Dallas/Fort Worth, TX

Home | Current Version | Previous Version | Text Only | Print | Product List | Glossary On
Versions: 1 2 3 4 5 6 7 8 9 10 11 12 13 14 15 16 17 18 19 20 21 22 23 24 25 26 27 28
340
FTUS44 KFWD 310937 AAB
TAFACT
TAF AMD
KACT 310937Z 3110/0106 17010KT P6SM BKN009
     FM311600 16009KT P6SM SCT015 BKN040
     FM312200 16011KT P6SM VCTS BKN040CB
     FM010200 15010KT P6SM BKN100 OVC250=

USA.gov is the U.S. government's official web portal to all federal, state and local government web resources and services.